Time;durP1;ratioP1;P1;durP2;ratioP2;P2;SDS_P1;SDS_P2;PMS_P1;PMS_P2;Temp;Humidity;BMP_temperature;BMP_pressure;BME280_temperature;BME280_humidity;BME280_pressure;Samples;Min_cycle;Max_cycle;Signal;HPM_P1;HPM_P2
2022/05/24 00:01:17;;;;;;;1.85;1.67;;;17.00;99.90;;;17.00;70.14;96572.06;5027809;28;20053;-39
2022/05/24 00:03:45;;;;;;;3.45;1.83;;;16.80;99.90;;;17.29;68.82;96579.31;5027295;28;20283;-40
2022/05/24 00:06:14;;;;;;;2.05;1.65;;;17.00;99.90;;;17.08;70.06;96575.28;5028706;28;20059;-40
2022/05/24 00:08:45;;;;;;;2.22;2.00;;;16.80;99.90;;;17.23;68.89;96574.84;5027683;28;20069;-40
2022/05/24 00:11:12;;;;;;;2.85;2.00;;;16.90;99.90;;;17.19;69.03;96572.84;5026138;28;20061;-40
2022/05/24 00:13:40;;;;;;;2.95;2.63;;;16.90;99.90;;;17.10;68.99;96589.31;5028890;28;20064;-40
2022/05/24 00:16:08;;;;;;;2.97;2.50;;;16.80;99.90;;;17.03;69.59;96582.38;5028392;28;20076;-39
2022/05/24 00:18:36;;;;;;;3.20;2.88;;;16.70;99.90;;;17.00;69.42;96578.28;5026909;28;20050;-39
2022/05/24 00:21:06;;;;;;;2.80;2.30;;;16.70;99.90;;;17.05;69.38;96586.47;5028573;28;20553;-40
2022/05/24 00:23:35;;;;;;;4.18;2.83;;;16.80;99.90;;;17.04;69.23;96576.78;5029254;28;20049;-40
2022/05/24 00:26:08;;;;;;;3.42;2.90;;;16.70;99.90;;;16.87;70.78;96579.28;5026420;28;20053;-40
2022/05/24 00:28:37;;;;;;;3.42;2.95;;;16.60;99.90;;;16.74;70.58;96574.03;5027716;28;20059;-39
2022/05/24 00:31:05;;;;;;;3.50;2.80;;;16.40;99.90;;;16.89;70.14;96577.19;5029140;28;20053;-39
2022/05/24 00:33:34;;;;;;;2.97;2.67;;;16.60;99.90;;;17.03;69.48;96580.50;5009352;28;20068;-39
2022/05/24 00:36:03;;;;;;;3.47;2.40;;;16.80;99.90;;;17.02;69.66;96573.50;5027278;28;20339;-40
2022/05/24 00:38:38;;;;;;;3.22;2.65;;;16.80;99.90;;;17.09;69.41;96571.50;5027521;28;20084;-40
2022/05/24 00:41:36;;;;;;;3.13;2.50;;;16.80;99.90;;;17.17;69.57;96567.69;5028128;28;20057;-39
2022/05/24 00:44:21;;;;;;;2.72;2.40;;;16.90;99.90;;;17.25;69.15;96570.06;5026375;28;20063;-40
2022/05/24 00:47:07;;;;;;;3.63;2.60;;;16.90;99.90;;;17.31;68.78;96566.47;5026368;28;20045;-39
2022/05/24 00:49:51;;;;;;;3.15;2.25;;;17.00;99.90;;;17.36;68.87;96564.94;5026437;28;20056;-39
2022/05/24 00:52:27;;;;;;;2.92;2.25;;;17.10;99.90;;;17.36;68.54;96559.56;5026407;28;20339;-39
2022/05/24 00:54:59;;;;;;;4.38;3.15;;;17.00;99.90;;;17.31;68.83;96560.22;5027200;28;20083;-39
2022/05/24 00:57:34;;;;;;;2.90;1.90;;;16.90;99.90;;;17.28;68.64;96555.34;5027401;28;20065;-39
2022/05/24 01:00:13;;;;;;;1.90;1.73;;;16.90;99.90;;;17.19;68.93;96546.75;5026130;28;20343;-39
2022/05/24 01:02:42;;;;;;;2.17;1.83;;;16.80;99.90;;;17.24;68.64;96562.22;5026802;28;20351;-39
2022/05/24 01:05:18;;;;;;;2.50;1.88;;;16.80;99.90;;;17.19;68.74;96568.28;5027127;28;20053;-39
2022/05/24 01:07:47;;;;;;;2.10;1.90;;;16.80;99.90;;;17.26;68.71;96563.63;5026497;28;20348;-40
2022/05/24 01:10:41;;;;;;;2.03;1.80;;;16.90;99.90;;;17.13;69.46;96574.56;5027961;28;20223;-40
2022/05/24 01:13:27;;;;;;;2.80;2.13;;;17.00;99.90;;;17.23;68.82;96574.84;5026055;28;20057;-39
2022/05/24 01:15:55;;;;;;;2.47;1.77;;;16.90;99.90;;;17.24;68.36;96562.22;5026731;28;20053;-39
2022/05/24 01:18:24;;;;;;;2.50;2.13;;;16.90;99.90;;;17.25;68.21;96561.16;5026067;28;20053;-39
2022/05/24 01:21:00;;;;;;;2.55;1.95;;;16.90;99.90;;;17.02;69.32;96564.59;5026413;28;20057;-39
2022/05/24 01:24:20;;;;;;;3.55;1.90;;;16.80;99.90;;;17.12;68.53;96562.19;5026306;28;20243;-39
2022/05/24 01:26:55;;;;;;;4.25;2.20;;;16.70;99.90;;;17.16;68.58;96557.16;5026193;28;20053;-39
2022/05/24 01:29:26;;;;;;;3.47;2.17;;;16.80;99.90;;;17.12;68.90;96560.31;5027169;28;20362;-39
2022/05/24 01:37:30;;;;;;;3.08;2.03;;;16.90;99.90;;;17.15;68.00;96539.38;5025534;28;20053;-39
2022/05/24 01:39:59;;;;;;;2.92;2.28;;;16.70;99.90;;;17.10;67.80;96540.09;5027580;28;20053;-40
2022/05/24 01:42:28;;;;;;;3.40;2.40;;;16.70;99.90;;;17.09;67.91;96531.19;5024938;28;20049;-39
2022/05/24 01:45:11;;;;;;;2.97;2.50;;;16.80;99.90;;;17.06;67.96;96541.56;5025940;28;20059;-39
2022/05/24 01:47:43;;;;;;;3.03;2.33;;;16.70;99.90;;;16.95;68.48;96535.13;5024439;28;20050;-40
2022/05/24 01:50:17;;;;;;;3.72;2.60;;;16.60;99.90;;;17.02;68.04;96535.84;5024599;28;20251;-39
2022/05/24 01:52:58;;;;;;;3.58;2.45;;;16.60;99.90;;;17.05;68.14;96537.25;5025748;28;20060;-39
2022/05/24 01:55:54;;;;;;;2.90;2.60;;;16.70;99.90;;;17.07;68.05;96540.53;5027043;28;20348;-39
2022/05/24 01:58:27;;;;;;;2.95;2.65;;;16.70;99.90;;;17.08;67.76;96537.63;5025269;28;20061;-39
2022/05/24 02:01:43;;;;;;;3.03;2.70;;;16.70;99.90;;;17.06;67.57;96528.97;5025893;28;20057;-39
2022/05/24 02:04:11;;;;;;;3.13;2.35;;;16.70;99.90;;;17.07;67.46;96537.84;5025772;28;20150;-39
2022/05/24 02:06:39;;;;;;;3.20;2.90;;;16.70;99.90;;;17.05;67.46;96535.38;5026642;28;20063;-39
2022/05/24 02:09:13;;;;;;;4.43;2.60;;;16.70;99.90;;;17.04;67.33;96532.91;5026657;28;20053;-39
2022/05/24 02:11:41;;;;;;;3.05;2.53;;;16.60;99.90;;;17.02;67.38;96535.00;5025965;28;20056;-39
2022/05/24 02:14:22;;;;;;;2.90;2.60;;;16.60;99.90;;;17.00;67.46;96543.34;5027251;28;20401;-39
2022/05/24 02:17:04;;;;;;;3.22;2.88;;;16.60;99.90;;;17.00;67.52;96542.50;5027175;28;20055;-39
2022/05/24 02:19:37;;;;;;;2.80;2.33;;;16.60;99.90;;;16.98;67.54;96545.41;5026382;28;20060;-39
2022/05/24 02:22:10;;;;;;;;;;;16.60;99.90;;;16.91;67.29;96550.06;5025757;28;20049;-39
2022/05/24 02:24:38;;;;;;;2.30;2.08;;;16.50;99.90;;;16.91;67.34;96545.50;5024858;28;19916;-39
2022/05/24 02:27:06;;;;;;;3.45;2.05;;;16.50;99.90;;;16.91;67.53;96548.19;5025722;28;20047;-39
2022/05/24 02:29:34;;;;;;;2.55;2.20;;;16.50;99.90;;;16.91;67.69;96542.81;5024472;28;20243;-39
2022/05/24 02:32:03;;;;;;;2.70;2.00;;;16.50;99.90;;;16.92;67.41;96539.09;5025551;28;20348;-39
2022/05/24 02:34:31;;;;;;;2.70;2.30;;;16.60;99.90;;;16.93;67.54;96529.97;5027313;28;20049;-39
2022/05/24 02:36:59;;;;;;;2.38;2.00;;;16.60;99.90;;;16.94;67.48;96536.16;5026955;28;20347;-39
2022/05/24 02:39:27;;;;;;;3.72;2.40;;;16.60;99.90;;;16.91;67.29;96529.38;5026917;28;20053;-39
2022/05/24 02:41:55;;;;;;;2.42;2.20;;;16.60;99.90;;;16.90;67.30;96530.44;5043029;28;20363;-39
2022/05/24 02:44:23;;;;;;;3.17;2.58;;;16.60;99.90;;;16.90;67.44;96526.91;5029118;28;20049;-39
2022/05/24 02:46:51;;;;;;;3.15;2.20;;;16.50;99.90;;;16.83;67.35;96515.47;5030334;28;20060;-40
2022/05/24 02:49:18;;;;;;;2.88;2.45;;;16.40;99.90;;;16.76;67.53;96520.88;5029270;28;20045;-39
2022/05/24 02:51:47;;;;;;;3.30;2.20;;;16.40;99.90;;;16.77;67.70;96511.78;5029206;28;20053;-39
2022/05/24 02:54:15;;;;;;;3.28;2.58;;;16.40;99.90;;;16.78;67.46;96515.28;5030367;28;20263;-40
2022/05/24 02:56:44;;;;;;;3.85;2.53;;;16.40;99.90;;;16.79;67.79;96516.91;5029444;28;20354;-40
2022/05/24 02:59:12;;;;;;;2.78;2.40;;;16.40;99.90;;;16.77;67.68;96502.88;5029897;28;20049;-39
2022/05/24 03:01:40;;;;;;;2.70;2.50;;;16.40;99.90;;;16.74;67.66;96509.53;5028683;28;20061;-40
2022/05/24 03:04:09;;;;;;;2.50;2.30;;;16.40;99.90;;;16.73;67.79;96510.59;5029665;28;20049;-39
2022/05/24 03:09:35;;;;;;;3.22;2.38;;;16.40;99.90;;;16.73;67.79;96527.53;5029486;28;20053;-40
2022/05/24 03:14:55;;;;;;;2.58;2.38;;;16.40;99.90;;;16.71;67.90;96524.25;5030210;28;20248;-39
2022/05/24 03:17:24;;;;;;;3.78;3.40;;;16.40;99.90;;;16.71;67.99;96526.94;5029494;28;20244;-39
2022/05/24 03:19:52;;;;;;;3.08;2.38;;;16.40;99.90;;;16.69;68.01;96523.66;5029398;28;20045;-40
2022/05/24 03:22:20;;;;;;;3.03;2.40;;;16.40;99.90;;;16.66;68.02;96529.47;5028918;28;20064;-40
2022/05/24 03:24:48;;;;;;;2.80;2.47;;;16.40;99.90;;;16.64;68.19;96541.50;5029674;28;20064;-40
2022/05/24 03:27:17;;;;;;;2.85;2.25;;;16.30;99.90;;;16.62;67.96;96552.47;5028814;28;20254;-40
2022/05/24 03:29:47;;;;;;;2.30;1.90;;;16.30;99.90;;;16.61;68.30;96550.03;5028856;28;20056;-40
2022/05/24 03:32:18;;;;;;;3.40;2.35;;;16.30;99.90;;;16.58;68.35;96559.34;5029319;28;20053;-40
2022/05/24 03:34:46;;;;;;;2.63;2.15;;;16.20;99.90;;;16.58;68.42;96559.34;5029567;28;20053;-40
2022/05/24 03:37:15;;;;;;;2.35;2.00;;;16.20;99.90;;;16.58;68.33;96555.84;5027756;28;20077;-40
2022/05/24 03:39:43;;;;;;;2.72;2.42;;;16.20;99.90;;;16.61;68.25;96548.13;5029282;28;20057;-40
2022/05/24 03:42:11;;;;;;;3.00;2.22;;;16.30;99.90;;;16.62;68.28;96544.41;5026486;28;20064;-40
2022/05/24 03:44:39;;;;;;;3.53;2.22;;;16.30;99.90;;;16.64;68.41;96545.00;5028646;28;20339;-40
2022/05/24 03:47:07;;;;;;;2.33;2.13;;;16.30;99.90;;;16.65;68.49;96541.28;5027745;28;20271;-40
2022/05/24 03:49:34;;;;;;;2.25;1.75;;;16.30;99.90;;;16.67;68.34;96541.88;5027662;28;20067;-40
2022/05/24 03:52:03;;;;;;;4.18;2.13;;;16.40;99.90;;;16.69;68.55;96539.78;5030431;28;20057;-40
2022/05/24 03:54:31;;;;;;;2.78;2.08;;;16.40;99.90;;;16.70;68.72;96541.41;5027613;28;20045;-40
2022/05/24 03:59:46;;;;;;;2.63;2.28;;;16.40;99.90;;;16.68;68.66;96540.81;5029635;28;20544;-40
2022/05/24 04:02:14;;;;;;;3.63;2.25;;;16.40;99.90;;;16.68;68.46;96548.88;5027273;28;20051;-40
2022/05/24 04:04:42;;;;;;;2.88;2.13;;;16.40;99.90;;;16.69;68.44;96557.75;5027729;28;20072;-40
2022/05/24 04:07:12;;;;;;;3.00;1.83;;;16.40;99.90;;;16.67;68.33;96555.31;5027749;28;20398;-40
2022/05/24 04:09:40;;;;;;;2.50;1.60;;;16.40;99.90;;;16.67;68.39;96557.16;5027453;28;20390;-40
2022/05/24 04:12:09;;;;;;;2.47;2.28;;;16.40;99.90;;;16.66;68.46;96564.41;5027987;28;20053;-40
2022/05/24 04:14:37;;;;;;;2.92;2.13;;;16.30;99.90;;;16.68;68.48;96553.44;5028853;28;20056;-41
2022/05/24 04:17:05;;;;;;;3.92;2.40;;;16.40;99.90;;;16.71;68.65;96552.97;5029316;28;20222;-40
2022/05/24 04:19:33;;;;;;;2.20;1.83;;;16.40;99.90;;;16.73;68.42;96548.22;5028540;28;20063;-40
2022/05/24 04:22:01;;;;;;;2.63;2.20;;;16.50;99.90;;;16.75;68.19;96548.81;5028067;28;20370;-40
2022/05/24 04:24:29;;;;;;;3.30;1.83;;;16.50;99.90;;;16.74;68.31;96557.91;5028150;28;20363;-40
2022/05/24 04:26:57;;;;;;;2.40;1.90;;;16.50;99.90;;;16.78;68.17;96552.91;5043298;28;20055;-40
2022/05/24 04:29:25;;;;;;;3.58;2.78;;;16.50;99.90;;;16.80;68.20;96557.00;5027229;28;20063;-40
2022/05/24 04:31:52;;;;;;;3.05;1.77;;;16.60;99.90;;;16.81;68.09;96557.81;5027229;28;20055;-41
2022/05/24 04:34:20;;;;;;;3.25;2.35;;;16.50;99.90;;;16.83;67.87;96558.47;5028210;28;20049;-40
2022/05/24 04:36:48;;;;;;;1.75;1.60;;;16.60;99.90;;;16.86;67.92;96566.88;5028038;28;20247;-40
2022/05/24 04:39:17;;;;;;;2.65;1.90;;;16.60;99.90;;;16.88;67.49;96570.16;5029098;28;20603;-40
2022/05/24 04:44:32;;;;;;;2.10;1.60;;;16.70;99.90;;;16.91;67.17;96588.53;5027892;28;20064;-41
2022/05/24 04:47:09;;;;;;;1.92;1.60;;;16.60;99.90;;;16.90;67.10;96591.44;5026121;28;20061;-41
2022/05/24 04:49:41;;;;;;;2.95;1.65;;;16.60;99.90;;;16.90;67.10;96588.75;5027872;28;20060;-40
2022/05/24 04:52:14;;;;;;;1.88;1.52;;;16.60;99.90;;;16.93;67.22;96607.94;5042321;28;20339;-41
2022/05/24 04:54:44;;;;;;;3.25;1.80;;;16.70;99.90;;;16.93;67.28;96607.94;5027522;28;20084;-40
2022/05/24 04:57:13;;;;;;;3.03;1.65;;;16.70;99.90;;;16.95;67.08;96612.28;5028595;28;20071;-41
2022/05/24 04:59:41;;;;;;;2.50;2.08;;;16.70;99.90;;;16.97;67.12;96602.13;5027418;28;20057;-40
2022/05/24 05:02:17;;;;;;;2.10;1.85;;;16.70;99.90;;;16.94;66.93;96606.06;5026882;28;20060;-40
2022/05/24 05:04:46;;;;;;;2.33;1.80;;;16.70;99.90;;;16.95;66.61;96602.34;5027967;28;20053;-41
2022/05/24 05:07:19;;;;;;;3.17;1.50;;;16.70;99.90;;;16.97;66.64;96602.13;5027122;28;20310;-41
2022/05/24 05:09:50;;;;;;;1.60;1.50;;;16.70;99.90;;;17.01;66.43;96601.41;5026944;28;20055;-40
2022/05/24 05:12:19;;;;;;;1.80;1.50;;;16.80;99.90;;;17.03;66.46;96599.31;5026516;28;20041;-40
2022/05/24 05:14:47;;;;;;;2.65;1.58;;;16.80;99.90;;;17.09;66.26;96600.28;5027034;28;20057;-40
2022/05/24 05:17:18;;;;;;;2.05;1.42;;;16.90;99.90;;;17.08;65.92;96609.41;5026907;28;20045;-41
2022/05/24 05:19:47;;;;;;;2.55;1.55;;;16.80;99.90;;;17.06;65.68;96614.16;5026972;28;20050;-41
2022/05/24 05:22:22;;;;;;;;;;;16.80;99.90;;;16.98;65.59;96612.63;5027917;28;20053;-40
2022/05/24 05:24:51;;;;;;;2.90;1.75;;;16.70;99.90;;;17.05;65.90;96609.84;5028339;28;19917;-41
2022/05/24 05:27:20;;;;;;;2.50;2.00;;;16.70;99.90;;;17.06;65.45;96611.47;5027159;28;20060;-40
2022/05/24 05:32:36;;;;;;;2.25;1.90;;;16.80;99.90;;;17.18;65.45;96630.38;5040930;28;20060;-41
2022/05/24 05:35:06;;;;;;;1.98;1.60;;;16.90;99.90;;;17.14;65.36;96630.00;5026642;28;20059;-40
2022/05/24 05:37:35;;;;;;;1.55;1.40;;;16.90;99.90;;;17.17;65.52;96624.16;5026148;28;20042;-40
2022/05/24 05:40:06;;;;;;;2.72;1.80;;;16.90;99.90;;;17.13;65.56;96626.47;5026570;28;20056;-40
2022/05/24 05:42:35;;;;;;;2.15;1.95;;;16.90;99.90;;;17.04;65.36;96627.88;5026257;28;20049;-40
2022/05/24 05:45:03;;;;;;;4.53;1.83;;;16.80;99.90;;;17.03;65.46;96633.47;5026347;28;20057;-40
2022/05/24 05:47:31;;;;;;;2.95;1.38;;;16.70;99.90;;;17.03;65.82;96634.28;5025860;28;20052;-40
2022/05/24 05:49:59;;;;;;;2.35;1.80;;;16.70;99.90;;;17.04;65.79;96633.25;5025949;28;20057;-40
2022/05/24 05:52:27;;;;;;;2.97;1.50;;;16.80;99.90;;;17.07;65.58;96635.47;5026214;28;20049;-40
2022/05/24 05:54:55;;;;;;;1.67;1.55;;;16.80;99.90;;;17.09;65.57;96632.56;5027523;28;20236;-40
2022/05/24 05:57:23;;;;;;;3.03;1.92;;;16.80;99.90;;;17.13;65.72;96631.03;5025753;28;20057;-40
2022/05/24 05:59:53;;;;;;;1.70;1.58;;;17.00;99.90;;;17.19;65.93;96632.00;5026992;28;20057;-40
2022/05/24 06:02:20;;;;;;;1.73;1.38;;;17.00;99.90;;;17.24;65.84;96634.84;5026152;28;20063;-40
2022/05/24 06:04:49;;;;;;;2.60;1.73;;;17.10;99.90;;;17.29;65.85;96633.13;5025961;28;20049;-41
2022/05/24 06:07:18;;;;;;;1.88;1.65;;;17.20;99.90;;;17.37;65.61;96633.81;5026204;28;20116;-41
2022/05/24 06:09:48;;;;;;;2.38;1.77;;;17.30;99.90;;;17.43;65.69;96641.00;5025816;28;20046;-41
2022/05/24 06:12:17;;;;;;;2.42;1.98;;;17.40;99.90;;;17.48;65.80;96639.22;5025599;28;20053;-41
2022/05/24 06:14:45;;;;;;;5.55;1.60;;;17.40;99.90;;;17.54;65.36;96642.88;5025849;28;20508;-41
2022/05/24 06:17:26;;;;;;;2.47;1.80;;;17.50;99.90;;;17.61;65.66;96632.03;5026195;28;20053;-40
2022/05/24 06:19:57;;;;;;;4.55;1.70;;;17.60;99.90;;;17.65;65.25;96639.41;5024543;28;20061;-40
2022/05/24 06:22:25;;;;;;;3.17;2.20;;;17.60;99.90;;;17.67;65.10;96642.69;5023946;28;20072;-40
2022/05/24 06:24:53;;;;;;;1.67;1.58;;;17.50;99.90;;;17.63;64.99;96644.19;5026477;28;20339;-40
2022/05/24 06:27:22;;;;;;;3.30;1.75;;;17.50;99.90;;;17.63;64.86;96654.97;5025230;28;20045;-40
2022/05/24 06:29:49;;;;;;;2.25;1.73;;;17.50;99.90;;;17.63;64.67;96659.53;5025575;28;20225;-41
2022/05/24 06:32:17;;;;;;;3.17;1.70;;;17.50;99.90;;;17.63;64.70;96663.03;5025163;28;20041;-40
2022/05/24 06:34:48;;;;;;;2.83;1.40;;;17.40;99.90;;;17.66;64.52;96667.13;5026280;28;20055;-40
2022/05/24 06:37:18;;;;;;;3.80;1.83;;;17.50;99.90;;;17.63;64.54;96684.56;5025779;28;20049;-40
2022/05/24 06:39:47;;;;;;;2.53;1.77;;;17.40;99.90;;;17.48;64.85;96694.91;5027251;28;20088;-39
2022/05/24 06:42:15;;;;;;;2.22;2.03;;;17.30;99.90;;;17.30;66.66;96720.00;5025762;28;20152;-38
2022/05/24 06:44:44;;;;;;;2.35;1.77;;;17.10;99.90;;;17.22;66.89;96749.91;5026663;28;20056;-38
2022/05/24 06:47:13;;;;;;;3.33;1.75;;;16.90;99.90;;;16.44;67.65;96795.09;5036559;28;20359;-38
2022/05/24 06:49:49;;;;;;;3.53;1.75;;;16.00;99.90;;;15.69;69.17;96817.22;5034493;28;20061;-38
2022/05/24 06:52:18;;;;;;;2.75;1.80;;;14.80;99.90;;;14.54;70.73;96798.13;5037282;28;20390;-38
2022/05/24 06:54:46;;;;;;;4.22;1.52;;;13.70;99.90;;;13.72;72.25;96789.38;5036742;28;20378;-38
2022/05/24 06:57:15;;;;;;;2.67;1.20;;;13.00;99.90;;;13.31;73.91;96798.28;5037333;28;20053;-39
2022/05/24 07:02:30;;;;;;;1.55;0.90;;;12.70;99.90;;;13.14;74.66;96806.63;5036683;28;20046;-39
2022/05/24 07:05:14;;;;;;;16.98;1.88;;;12.70;99.90;;;13.04;77.34;96807.97;5035262;28;20057;-39
2022/05/24 07:07:42;;;;;;;3.50;1.38;;;12.80;99.90;;;12.92;76.17;96805.84;5036596;28;20044;-39
2022/05/24 07:10:15;;;;;;;1.35;1.20;;;12.60;99.90;;;13.00;76.93;96810.22;5034283;28;20267;-39
2022/05/24 07:12:45;;;;;;;1.33;1.07;;;12.60;99.90;;;12.73;77.69;96803.88;5036391;28;20352;-39
2022/05/24 07:15:13;;;;;;;2.28;1.00;;;12.50;99.90;;;12.80;76.62;96789.56;5036185;28;20060;-39
2022/05/24 07:17:41;;;;;;;1.92;1.23;;;12.50;99.90;;;12.93;76.69;96798.66;5036442;28;20054;-38
2022/05/24 07:20:10;;;;;;;5.40;1.27;;;12.70;99.90;;;13.06;76.43;96800.59;5037698;28;20243;-39
2022/05/24 07:22:37;;;;;;;1.35;0.98;;;12.80;99.90;;;12.95;77.03;96800.13;5037286;28;20063;-39
2022/05/24 07:25:06;;;;;;;1.27;0.90;;;12.70;99.90;;;12.89;77.02;96795.59;5035797;28;20049;-39
2022/05/24 07:27:34;;;;;;;2.78;1.20;;;12.70;99.90;;;12.93;77.31;96799.50;5038597;28;20057;-39
2022/05/24 07:30:04;;;;;;;0.82;0.82;;;12.70;99.90;;;12.67;77.59;96800.16;5040482;28;20259;-39
2022/05/24 07:32:33;;;;;;;1.80;1.08;;;12.60;99.90;;;12.75;77.81;96810.69;5041441;28;20059;-39
2022/05/24 07:35:03;;;;;;;1.27;0.95;;;12.60;99.90;;;12.85;77.28;96822.88;5055737;28;20053;-39
2022/05/24 07:37:32;;;;;;;1.20;1.00;;;12.70;99.90;;;12.86;77.73;96828.03;5040933;28;20064;-39
2022/05/24 07:45:50;;;;;;;0.90;0.90;;;12.90;99.90;;;12.89;76.96;96849.00;5024146;28;20367;-40
2022/05/24 07:48:19;;;;;;;1.20;0.95;;;13.00;99.90;;;12.84;77.79;96853.28;5025012;28;20044;-40
2022/05/24 07:50:47;;;;;;;2.13;0.70;;;12.90;99.90;;;12.82;77.46;96849.97;5019873;28;20080;-40
2022/05/24 07:53:15;;;;;;;0.80;0.80;;;12.90;99.90;;;12.75;77.00;96865.94;5033636;28;20235;-39
2022/05/24 07:55:44;;;;;;;1.52;0.90;;;12.90;99.90;;;12.74;76.87;96864.31;5039509;28;20047;-39
2022/05/24 07:58:13;;;;;;;1.23;0.90;;;12.90;99.90;;;12.93;76.48;96868.97;5039251;28;20041;-39
2022/05/24 08:00:42;;;;;;;0.93;0.80;;;13.00;99.90;;;13.14;76.53;96864.56;5041321;28;20062;-40
2022/05/24 08:03:10;;;;;;;2.10;1.00;;;13.20;99.90;;;13.31;76.31;96867.78;5041953;28;20063;-39
2022/05/24 08:05:39;;;;;;;0.80;0.80;;;13.40;99.90;;;13.44;75.80;96875.06;5043042;28;20069;-39
2022/05/24 08:08:08;;;;;;;0.75;0.70;;;13.40;99.90;;;13.44;75.39;96867.03;5053816;28;20041;-39
2022/05/24 08:10:38;;;;;;;1.10;0.70;;;13.50;99.90;;;13.53;74.84;96868.50;5052177;28;20041;-39
2022/05/24 08:13:10;;;;;;;1.90;0.85;;;13.60;99.90;;;13.72;74.31;96862.41;5054497;28;20072;-39
2022/05/24 08:15:39;;;;;;;2.38;0.70;;;13.70;99.90;;;13.56;73.31;96868.94;5051744;28;20038;-39
2022/05/24 08:18:08;;;;;;;0.85;0.70;;;13.50;99.90;;;13.56;73.04;96870.78;5054078;28;20055;-39
2022/05/24 08:20:37;;;;;;;3.60;0.90;;;13.50;99.90;;;13.55;72.13;96874.47;5053180;28;20044;-38
2022/05/24 08:23:06;;;;;;;1.30;0.57;;;13.50;99.90;;;13.61;72.10;96875.53;5052217;28;20053;-39
2022/05/24 08:25:39;;;;;;;1.07;0.80;;;13.50;99.90;;;13.90;72.07;96877.06;5048588;28;20063;-38
2022/05/24 08:28:07;;;;;;;1.75;0.90;;;13.70;99.90;;;14.08;71.61;96871.19;5047507;28;20056;-39
2022/05/24 08:30:39;;;;;;;1.15;0.77;;;13.90;99.90;;;14.31;71.91;96879.66;5047951;28;20055;-38
2022/05/24 08:33:07;;;;;;;1.10;0.80;;;14.10;99.90;;;14.31;70.67;96881.53;5047845;28;20052;-39
2022/05/24 08:35:37;;;;;;;0.80;0.70;;;14.10;99.90;;;14.47;71.09;96885.66;5047540;28;20055;-39
2022/05/24 08:38:06;;;;;;;0.70;0.70;;;14.10;99.90;;;14.45;69.92;96896.56;5046929;28;20064;-39
2022/05/24 08:40:38;;;;;;;1.65;0.68;;;14.10;99.90;;;14.44;69.07;96907.47;5046802;28;20331;-39
2022/05/24 08:43:32;;;;;;;0.73;0.55;;;14.00;99.90;;;14.52;67.92;96915.31;5047356;28;20049;-39
2022/05/24 08:49:05;;;;;;;1.27;0.70;;;14.30;99.90;;;14.55;66.76;96906.88;5046838;28;20254;-39
2022/05/24 08:51:38;;;;;;;0.88;0.70;;;14.40;99.90;;;14.60;67.05;96906.28;5045798;28;20059;-39
2022/05/24 08:54:18;;;;;;;1.02;0.80;;;14.40;99.90;;;14.61;67.05;96908.78;5028409;28;20049;-39
2022/05/24 08:57:10;;;;;;;1.85;0.60;;;14.50;99.90;;;14.70;65.04;96904.06;5036453;28;20041;-39
2022/05/24 09:00:05;;;;;;;1.05;0.70;;;14.60;99.90;;;14.66;65.00;96906.31;5037770;28;20049;-39
2022/05/24 09:02:40;;;;;;;1.27;0.77;;;14.60;99.90;;;14.73;65.09;96906.31;5034731;28;20131;-39
2022/05/24 09:05:41;;;;;;;4.15;0.60;;;14.70;99.90;;;14.83;64.68;96904.06;5036768;28;20053;-38
2022/05/24 09:08:34;;;;;;;0.80;0.80;;;14.80;99.90;;;14.86;63.65;96903.63;5038307;28;20048;-38
2022/05/24 09:11:24;;;;;;;2.33;0.85;;;14.90;99.90;;;15.07;64.92;96912.50;5038683;28;20041;-38
2022/05/24 09:14:28;;;;;;;0.98;0.70;;;15.00;99.90;;;14.98;61.43;96911.88;5037590;28;20056;-39
2022/05/24 09:17:40;;;;;;;0.75;0.70;;;15.10;99.90;;;15.04;60.47;96915.59;5038748;28;20238;-39
2022/05/24 09:20:30;;;;;;;0.50;0.50;;;15.30;98.70;;;15.03;60.62;96914.75;5036896;28;20045;-39
2022/05/24 09:23:25;;;;;;;0.70;0.70;;;15.40;95.50;;;14.95;59.90;96921.16;5036934;28;20045;-39
2022/05/24 09:26:03;;;;;;;0.80;0.70;;;15.30;92.60;;;15.07;61.73;96920.53;5038103;28;20045;-38
2022/05/24 09:28:53;;;;;;;1.98;0.75;;;15.40;96.50;;;15.28;61.17;96920.31;5038570;28;20055;-39
2022/05/24 09:31:48;;;;;;;2.65;1.00;;;15.60;92.60;;;15.50;59.70;96936.97;5037401;28;20266;-39
2022/05/24 09:34:19;;;;;;;0.70;0.70;;;15.90;87.70;;;15.33;58.67;96923.19;5037482;28;20059;-39
2022/05/24 09:37:01;;;;;;;0.98;0.70;;;15.80;83.40;;;15.64;59.76;96927.03;5038109;28;20049;-39
2022/05/24 09:39:35;;;;;;;0.77;0.77;;;16.00;83.80;;;15.74;58.06;96931.97;5038776;28;20254;-39
2022/05/24 09:42:23;;;;;;;1.00;0.90;;;16.30;78.30;;;15.80;57.42;96949.09;5037129;28;20044;-39
2022/05/24 09:45:26;;;;;;;2.17;0.95;;;16.40;78.20;;;15.90;56.53;96958.38;5036991;28;20049;-39
2022/05/24 09:47:58;;;;;;;0.65;0.60;;;16.60;76.00;;;15.98;57.06;96949.25;5035644;28;20251;-39
2022/05/24 09:50:39;;;;;;;0.75;0.60;;;16.50;74.80;;;15.99;55.05;96956.25;5034173;28;20049;-39
2022/05/24 09:53:19;;;;;;;1.05;0.68;;;16.40;67.70;;;15.89;55.94;96966.63;5037662;28;20060;-39
2022/05/24 09:55:48;;;;;;;1.35;1.10;;;16.30;70.50;;;15.88;56.81;96949.69;5035171;28;20037;-39
2022/05/24 09:58:27;;;;;;;1.33;0.80;;;16.20;72.10;;;16.00;55.60;96957.09;5040625;28;20063;-39
2022/05/24 10:01:13;;;;;;;2.25;0.93;;;16.30;69.30;;;16.19;55.42;96956.19;5042296;28;20053;-38
2022/05/24 10:03:46;;;;;;;1.48;1.15;;;16.50;67.70;;;16.31;55.56;96959.03;5039356;28;20057;-38
2022/05/24 10:06:25;;;;;;;0.70;0.70;;;16.60;68.30;;;16.36;55.09;96966.44;5040440;28;20045;-39
2022/05/24 10:08:58;;;;;;;1.80;1.10;;;16.70;68.30;;;16.40;53.38;96964.97;5042071;28;20063;-39
2022/05/24 10:11:35;;;;;;;0.80;0.73;;;16.70;64.30;;;16.33;54.53;96959.63;5041829;28;20343;-39
2022/05/24 10:14:18;;;;;;;1.48;0.77;;;16.70;66.20;;;16.39;54.88;96961.47;5036836;28;20057;-39
2022/05/24 10:16:55;;;;;;;2.60;0.93;;;16.80;66.10;;;16.34;54.22;96964.78;5030380;28;20068;-39
2022/05/24 10:20:08;;;;;;;1.00;0.90;;;16.70;65.90;;;16.28;53.24;96962.94;5029063;28;20065;-39
2022/05/24 10:23:19;;;;;;;1.60;0.98;;;16.80;64.40;;;16.40;52.84;96963.13;5027096;28;20281;-39
2022/05/24 10:26:12;;;;;;;0.80;0.80;;;16.90;62.90;;;16.54;52.49;96961.19;5025342;28;20064;-39
2022/05/24 10:28:48;;;;;;;3.60;1.95;;;17.00;62.30;;;16.67;53.80;96957.56;5026133;28;20038;-39
2022/05/24 10:31:54;;;;;;;0.95;0.85;;;17.10;64.60;;;16.78;52.16;96948.81;5026003;28;20076;-39
2022/05/24 10:40:47;;;;;;;1.10;0.65;;;17.50;60.30;;;17.20;50.04;96949.16;5025801;28;20053;-39
2022/05/24 10:43:42;;;;;;;1.17;0.80;;;17.60;58.80;;;17.36;50.73;96953.13;5024901;28;20064;-39
2022/05/24 10:46:20;;;;;;;1.60;0.80;;;17.70;60.20;;;17.46;50.23;96952.63;5026697;28;20053;-39
2022/05/24 10:49:16;;;;;;;1.85;1.10;;;17.80;60.00;;;17.58;50.25;96948.16;5026259;28;20560;-39
2022/05/24 10:52:04;;;;;;;1.88;0.80;;;18.00;59.20;;;17.75;50.59;96961.84;5024937;28;20041;-39
2022/05/24 10:54:43;;;;;;;1.00;0.90;;;18.10;59.30;;;17.79;49.67;96963.06;5026307;28;20052;-39
2022/05/24 10:57:31;;;;;;;1.00;0.90;;;18.20;58.40;;;17.79;48.44;96940.69;5026426;28;20055;-39
2022/05/24 11:00:05;;;;;;;1.00;0.90;;;18.20;56.30;;;17.90;48.41;96943.50;5024676;28;20080;-39
2022/05/24 11:03:00;;;;;;;1.25;1.02;;;18.30;56.60;;;18.04;49.24;96943.34;5027548;28;20405;-39
2022/05/24 11:06:04;;;;;;;1.40;0.98;;;18.50;56.60;;;17.94;47.75;96945.75;5027407;28;20053;-39
2022/05/24 11:08:54;;;;;;;1.15;0.75;;;18.30;53.30;;;17.78;47.82;96945.28;5027611;28;20049;-39
2022/05/24 11:11:50;;;;;;;1.85;0.95;;;18.20;54.80;;;17.86;49.84;96944.19;5028248;28;20064;-39
2022/05/24 11:14:43;;;;;;;1.08;0.88;;;18.10;58.30;;;17.84;48.10;96943.59;5028561;28;20102;-39
2022/05/24 11:17:12;;;;;;;0.70;0.70;;;18.20;56.00;;;17.76;47.33;96947.38;5028942;28;20259;-39
2022/05/24 11:19:49;;;;;;;3.40;1.38;;;18.00;54.60;;;17.69;47.72;96936.66;5028455;28;20224;-39
2022/05/24 11:22:35;;;;;;;0.80;0.80;;;17.90;55.70;;;17.73;47.77;96947.78;5027452;28;20059;-39
2022/05/24 11:25:21;;;;;;;1.75;0.75;;;18.00;55.90;;;17.82;48.91;96934.88;5029175;28;20053;-39
2022/05/24 11:28:21;;;;;;;1.60;0.70;;;18.00;57.60;;;17.90;47.29;96937.28;5028817;28;20067;-39